sensor_id;sensor_type;location;lat;lon;timestamp;P1;durP1;ratioP1;P2;durP2;ratioP2
53843;SDS011;39744;53.314;5.710;2023-04-27T00:02:12;7.90;;;3.45;;
53843;SDS011;39744;53.314;5.710;2023-04-27T00:04:37;6.32;;;3.20;;
53843;SDS011;39744;53.314;5.710;2023-04-27T00:07:03;6.00;;;3.00;;
53843;SDS011;39744;53.314;5.710;2023-04-27T00:09:29;5.68;;;3.35;;
53843;SDS011;39744;53.314;5.710;2023-04-27T00:11:54;7.72;;;3.85;;
53843;SDS011;39744;53.314;5.710;2023-04-27T00:14:20;7.30;;;3.38;;
53843;SDS011;39744;53.314;5.710;2023-04-27T00:16:46;5.82;;;3.40;;
53843;SDS011;39744;53.314;5.710;2023-04-27T00:19:12;6.10;;;3.33;;
53843;SDS011;39744;53.314;5.710;2023-04-27T00:21:39;7.22;;;3.40;;
53843;SDS011;39744;53.314;5.710;2023-04-27T00:24:04;7.18;;;3.58;;
53843;SDS011;39744;53.314;5.710;2023-04-27T00:26:30;7.20;;;3.30;;
53843;SDS011;39744;53.314;5.710;2023-04-27T00:28:56;8.30;;;3.50;;
53843;SDS011;39744;53.314;5.710;2023-04-27T00:31:22;5.88;;;3.10;;
53843;SDS011;39744;53.314;5.710;2023-04-27T00:33:47;5.63;;;3.35;;
53843;SDS011;39744;53.314;5.710;2023-04-27T00:36:13;6.45;;;3.70;;
53843;SDS011;39744;53.314;5.710;2023-04-27T00:38:39;6.65;;;3.45;;
53843;SDS011;39744;53.314;5.710;2023-04-27T00:41:05;6.18;;;3.72;;
53843;SDS011;39744;53.314;5.710;2023-04-27T00:43:31;7.40;;;4.00;;
53843;SDS011;39744;53.314;5.710;2023-04-27T00:45:58;8.38;;;4.05;;
53843;SDS011;39744;53.314;5.710;2023-04-27T00:48:24;7.18;;;3.65;;
53843;SDS011;39744;53.314;5.710;2023-04-27T00:50:50;8.27;;;3.67;;
53843;SDS011;39744;53.314;5.710;2023-04-27T00:53:16;8.13;;;3.88;;
53843;SDS011;39744;53.314;5.710;2023-04-27T00:55:42;6.97;;;3.70;;
53843;SDS011;39744;53.314;5.710;2023-04-27T00:58:07;7.57;;;4.10;;
53843;SDS011;39744;53.314;5.710;2023-04-27T01:00:37;5.85;;;3.50;;
53843;SDS011;39744;53.314;5.710;2023-04-27T01:03:04;7.32;;;3.75;;
53843;SDS011;39744;53.314;5.710;2023-04-27T01:05:31;7.78;;;3.78;;
53843;SDS011;39744;53.314;5.710;2023-04-27T01:07:56;7.55;;;4.07;;
53843;SDS011;39744;53.314;5.710;2023-04-27T01:10:22;9.38;;;4.25;;
53843;SDS011;39744;53.314;5.710;2023-04-27T01:12:47;9.75;;;4.30;;
53843;SDS011;39744;53.314;5.710;2023-04-27T01:15:13;7.25;;;3.83;;
53843;SDS011;39744;53.314;5.710;2023-04-27T01:17:39;9.00;;;4.10;;
53843;SDS011;39744;53.314;5.710;2023-04-27T01:20:05;10.95;;;4.25;;
53843;SDS011;39744;53.314;5.710;2023-04-27T01:22:34;7.00;;;3.90;;
53843;SDS011;39744;53.314;5.710;2023-04-27T01:25:00;9.75;;;4.63;;
53843;SDS011;39744;53.314;5.710;2023-04-27T01:27:25;9.35;;;4.18;;
53843;SDS011;39744;53.314;5.710;2023-04-27T01:29:51;9.68;;;4.43;;
53843;SDS011;39744;53.314;5.710;2023-04-27T01:32:16;9.00;;;4.30;;
53843;SDS011;39744;53.314;5.710;2023-04-27T01:34:42;12.93;;;5.10;;
53843;SDS011;39744;53.314;5.710;2023-04-27T01:37:08;10.25;;;4.93;;
53843;SDS011;39744;53.314;5.710;2023-04-27T01:39:33;9.15;;;3.90;;
53843;SDS011;39744;53.314;5.710;2023-04-27T01:41:59;9.43;;;5.25;;
53843;SDS011;39744;53.314;5.710;2023-04-27T01:44:26;13.02;;;4.68;;
53843;SDS011;39744;53.314;5.710;2023-04-27T01:46:52;11.52;;;4.82;;
53843;SDS011;39744;53.314;5.710;2023-04-27T01:49:17;9.13;;;4.60;;
53843;SDS011;39744;53.314;5.710;2023-04-27T01:51:43;9.50;;;4.53;;
53843;SDS011;39744;53.314;5.710;2023-04-27T01:54:09;8.95;;;4.57;;
53843;SDS011;39744;53.314;5.710;2023-04-27T01:56:34;12.30;;;4.72;;
53843;SDS011;39744;53.314;5.710;2023-04-27T01:59:00;7.95;;;4.60;;
53843;SDS011;39744;53.314;5.710;2023-04-27T02:01:26;8.60;;;4.13;;
53843;SDS011;39744;53.314;5.710;2023-04-27T02:03:52;9.68;;;4.40;;
53843;SDS011;39744;53.314;5.710;2023-04-27T02:06:17;8.48;;;4.70;;
53843;SDS011;39744;53.314;5.710;2023-04-27T02:08:43;10.07;;;5.18;;
53843;SDS011;39744;53.314;5.710;2023-04-27T02:11:09;10.38;;;4.82;;
53843;SDS011;39744;53.314;5.710;2023-04-27T02:13:34;9.48;;;4.47;;
53843;SDS011;39744;53.314;5.710;2023-04-27T02:16:00;7.60;;;4.47;;
53843;SDS011;39744;53.314;5.710;2023-04-27T02:18:29;9.25;;;4.82;;
53843;SDS011;39744;53.314;5.710;2023-04-27T02:20:56;8.82;;;4.72;;
53843;SDS011;39744;53.314;5.710;2023-04-27T02:23:22;8.25;;;4.50;;
53843;SDS011;39744;53.314;5.710;2023-04-27T02:25:47;9.38;;;5.00;;
53843;SDS011;39744;53.314;5.710;2023-04-27T02:28:13;10.95;;;5.35;;
53843;SDS011;39744;53.314;5.710;2023-04-27T02:30:39;7.63;;;4.20;;
53843;SDS011;39744;53.314;5.710;2023-04-27T02:33:04;10.27;;;5.38;;
53843;SDS011;39744;53.314;5.710;2023-04-27T02:35:31;10.02;;;5.20;;
53843;SDS011;39744;53.314;5.710;2023-04-27T02:37:57;12.85;;;5.00;;
53843;SDS011;39744;53.314;5.710;2023-04-27T02:40:23;8.68;;;4.88;;
53843;SDS011;39744;53.314;5.710;2023-04-27T02:42:49;8.40;;;4.38;;
53843;SDS011;39744;53.314;5.710;2023-04-27T02:45:15;7.53;;;4.68;;
53843;SDS011;39744;53.314;5.710;2023-04-27T02:47:41;8.43;;;4.95;;
53843;SDS011;39744;53.314;5.710;2023-04-27T02:50:07;7.97;;;4.80;;
53843;SDS011;39744;53.314;5.710;2023-04-27T02:52:33;9.20;;;4.60;;
53843;SDS011;39744;53.314;5.710;2023-04-27T02:54:58;12.13;;;4.90;;
53843;SDS011;39744;53.314;5.710;2023-04-27T02:57:24;7.38;;;3.90;;
53843;SDS011;39744;53.314;5.710;2023-04-27T02:59:49;12.10;;;5.10;;
53843;SDS011;39744;53.314;5.710;2023-04-27T03:02:15;8.10;;;4.65;;
53843;SDS011;39744;53.314;5.710;2023-04-27T03:04:41;9.10;;;4.28;;
53843;SDS011;39744;53.314;5.710;2023-04-27T03:07:07;9.25;;;4.80;;
53843;SDS011;39744;53.314;5.710;2023-04-27T03:09:33;6.95;;;3.97;;
53843;SDS011;39744;53.314;5.710;2023-04-27T03:11:58;8.90;;;4.63;;
53843;SDS011;39744;53.314;5.710;2023-04-27T03:14:24;7.43;;;4.30;;
53843;SDS011;39744;53.314;5.710;2023-04-27T03:16:49;9.50;;;4.50;;
53843;SDS011;39744;53.314;5.710;2023-04-27T03:19:15;8.82;;;3.92;;
53843;SDS011;39744;53.314;5.710;2023-04-27T03:21:41;8.82;;;4.10;;
53843;SDS011;39744;53.314;5.710;2023-04-27T03:24:07;8.55;;;4.40;;
53843;SDS011;39744;53.314;5.710;2023-04-27T03:26:32;9.45;;;4.07;;
53843;SDS011;39744;53.314;5.710;2023-04-27T03:28:58;7.22;;;3.95;;
53843;SDS011;39744;53.314;5.710;2023-04-27T03:31:24;7.97;;;4.72;;
53843;SDS011;39744;53.314;5.710;2023-04-27T03:33:49;9.50;;;4.45;;
53843;SDS011;39744;53.314;5.710;2023-04-27T03:36:15;7.40;;;3.63;;
53843;SDS011;39744;53.314;5.710;2023-04-27T03:38:41;6.38;;;4.18;;
53843;SDS011;39744;53.314;5.710;2023-04-27T03:41:06;7.82;;;4.00;;
53843;SDS011;39744;53.314;5.710;2023-04-27T03:43:32;7.40;;;3.97;;
53843;SDS011;39744;53.314;5.710;2023-04-27T03:45:58;8.55;;;3.60;;
53843;SDS011;39744;53.314;5.710;2023-04-27T03:48:23;8.32;;;3.97;;
53843;SDS011;39744;53.314;5.710;2023-04-27T03:50:49;6.63;;;3.38;;
53843;SDS011;39744;53.314;5.710;2023-04-27T03:53:15;8.93;;;4.38;;
53843;SDS011;39744;53.314;5.710;2023-04-27T03:55:41;6.65;;;3.63;;
53843;SDS011;39744;53.314;5.710;2023-04-27T03:58:07;7.70;;;4.07;;
53843;SDS011;39744;53.314;5.710;2023-04-27T04:00:36;6.50;;;3.85;;
53843;SDS011;39744;53.314;5.710;2023-04-27T04:03:03;10.02;;;4.47;;
53843;SDS011;39744;53.314;5.710;2023-04-27T04:05:29;9.85;;;3.97;;
53843;SDS011;39744;53.314;5.710;2023-04-27T04:07:55;9.05;;;4.38;;
53843;SDS011;39744;53.314;5.710;2023-04-27T04:10:21;9.18;;;4.38;;
53843;SDS011;39744;53.314;5.710;2023-04-27T04:12:47;9.75;;;4.07;;
53843;SDS011;39744;53.314;5.710;2023-04-27T04:15:13;8.27;;;4.40;;
53843;SDS011;39744;53.314;5.710;2023-04-27T04:17:39;12.82;;;4.50;;
53843;SDS011;39744;53.314;5.710;2023-04-27T04:20:04;8.00;;;4.20;;
53843;SDS011;39744;53.314;5.710;2023-04-27T04:22:32;10.85;;;4.68;;
53843;SDS011;39744;53.314;5.710;2023-04-27T04:24:58;9.13;;;4.57;;
53843;SDS011;39744;53.314;5.710;2023-04-27T04:27:23;7.72;;;4.28;;
53843;SDS011;39744;53.314;5.710;2023-04-27T04:29:49;8.73;;;4.40;;
53843;SDS011;39744;53.314;5.710;2023-04-27T04:32:15;8.27;;;4.38;;
53843;SDS011;39744;53.314;5.710;2023-04-27T04:34:42;8.52;;;4.05;;
53843;SDS011;39744;53.314;5.710;2023-04-27T04:37:13;8.93;;;4.35;;
53843;SDS011;39744;53.314;5.710;2023-04-27T04:39:39;11.25;;;4.55;;
53843;SDS011;39744;53.314;5.710;2023-04-27T04:42:04;8.90;;;3.85;;
53843;SDS011;39744;53.314;5.710;2023-04-27T04:44:30;9.48;;;4.65;;
53843;SDS011;39744;53.314;5.710;2023-04-27T04:46:56;8.68;;;4.18;;
53843;SDS011;39744;53.314;5.710;2023-04-27T04:49:21;9.68;;;4.63;;
53843;SDS011;39744;53.314;5.710;2023-04-27T04:51:47;8.15;;;4.20;;
53843;SDS011;39744;53.314;5.710;2023-04-27T04:54:13;9.23;;;4.50;;
53843;SDS011;39744;53.314;5.710;2023-04-27T04:56:39;7.63;;;4.55;;
53843;SDS011;39744;53.314;5.710;2023-04-27T04:59:04;10.93;;;5.03;;
53843;SDS011;39744;53.314;5.710;2023-04-27T05:01:30;9.77;;;5.38;;
53843;SDS011;39744;53.314;5.710;2023-04-27T05:03:56;11.18;;;5.63;;
53843;SDS011;39744;53.314;5.710;2023-04-27T05:06:21;9.98;;;5.10;;
53843;SDS011;39744;53.314;5.710;2023-04-27T05:08:47;11.98;;;5.35;;
53843;SDS011;39744;53.314;5.710;2023-04-27T05:11:13;10.00;;;5.35;;
53843;SDS011;39744;53.314;5.710;2023-04-27T05:13:38;9.07;;;5.13;;
53843;SDS011;39744;53.314;5.710;2023-04-27T05:16:04;9.25;;;4.63;;
53843;SDS011;39744;53.314;5.710;2023-04-27T05:18:31;8.60;;;4.60;;
53843;SDS011;39744;53.314;5.710;2023-04-27T05:20:58;7.63;;;4.63;;
53843;SDS011;39744;53.314;5.710;2023-04-27T05:23:23;8.48;;;4.65;;
53843;SDS011;39744;53.314;5.710;2023-04-27T05:25:49;7.57;;;4.20;;
53843;SDS011;39744;53.314;5.710;2023-04-27T05:28:15;7.40;;;4.53;;
53843;SDS011;39744;53.314;5.710;2023-04-27T05:30:41;8.18;;;4.60;;
53843;SDS011;39744;53.314;5.710;2023-04-27T05:33:07;7.03;;;4.07;;
53843;SDS011;39744;53.314;5.710;2023-04-27T05:35:32;6.53;;;4.05;;
53843;SDS011;39744;53.314;5.710;2023-04-27T05:37:58;10.18;;;4.47;;
53843;SDS011;39744;53.314;5.710;2023-04-27T05:40:24;7.32;;;4.18;;
53843;SDS011;39744;53.314;5.710;2023-04-27T05:42:50;9.52;;;4.82;;
53843;SDS011;39744;53.314;5.710;2023-04-27T05:45:16;8.52;;;4.45;;
53843;SDS011;39744;53.314;5.710;2023-04-27T05:47:42;7.95;;;4.32;;
53843;SDS011;39744;53.314;5.710;2023-04-27T05:50:08;7.70;;;4.30;;
53843;SDS011;39744;53.314;5.710;2023-04-27T05:52:33;7.60;;;4.45;;
53843;SDS011;39744;53.314;5.710;2023-04-27T05:55:00;8.25;;;4.18;;
53843;SDS011;39744;53.314;5.710;2023-04-27T05:57:25;6.15;;;4.10;;
53843;SDS011;39744;53.314;5.710;2023-04-27T05:59:52;8.95;;;3.88;;
53843;SDS011;39744;53.314;5.710;2023-04-27T06:02:18;8.57;;;3.80;;
53843;SDS011;39744;53.314;5.710;2023-04-27T06:04:44;7.55;;;4.22;;
53843;SDS011;39744;53.314;5.710;2023-04-27T06:07:13;7.13;;;4.18;;
53843;SDS011;39744;53.314;5.710;2023-04-27T06:09:40;7.72;;;3.80;;
53843;SDS011;39744;53.314;5.710;2023-04-27T06:12:06;8.52;;;4.10;;
53843;SDS011;39744;53.314;5.710;2023-04-27T06:14:33;7.47;;;3.40;;
53843;SDS011;39744;53.314;5.710;2023-04-27T06:17:00;5.32;;;3.58;;
53843;SDS011;39744;53.314;5.710;2023-04-27T06:19:27;6.72;;;3.83;;
53843;SDS011;39744;53.314;5.710;2023-04-27T06:21:53;7.22;;;3.08;;
53843;SDS011;39744;53.314;5.710;2023-04-27T06:24:20;9.20;;;3.75;;
53843;SDS011;39744;53.314;5.710;2023-04-27T06:26:46;7.78;;;3.90;;
53843;SDS011;39744;53.314;5.710;2023-04-27T06:29:13;5.97;;;3.63;;
53843;SDS011;39744;53.314;5.710;2023-04-27T06:31:39;7.00;;;3.45;;
53843;SDS011;39744;53.314;5.710;2023-04-27T06:34:05;7.88;;;3.30;;
53843;SDS011;39744;53.314;5.710;2023-04-27T06:36:30;5.43;;;3.15;;
53843;SDS011;39744;53.314;5.710;2023-04-27T06:38:56;6.55;;;3.17;;
53843;SDS011;39744;53.314;5.710;2023-04-27T06:41:23;5.45;;;3.05;;
53843;SDS011;39744;53.314;5.710;2023-04-27T06:43:50;8.48;;;3.10;;
53843;SDS011;39744;53.314;5.710;2023-04-27T06:46:16;4.45;;;2.80;;
53843;SDS011;39744;53.314;5.710;2023-04-27T06:48:42;3.90;;;2.58;;
53843;SDS011;39744;53.314;5.710;2023-04-27T06:51:08;6.38;;;2.72;;
53843;SDS011;39744;53.314;5.710;2023-04-27T06:53:33;6.65;;;3.00;;
53843;SDS011;39744;53.314;5.710;2023-04-27T06:55:59;4.75;;;2.67;;
53843;SDS011;39744;53.314;5.710;2023-04-27T06:58:25;13.20;;;2.78;;
53843;SDS011;39744;53.314;5.710;2023-04-27T07:00:51;6.60;;;2.78;;
53843;SDS011;39744;53.314;5.710;2023-04-27T07:03:17;5.85;;;2.72;;
53843;SDS011;39744;53.314;5.710;2023-04-27T07:05:43;4.50;;;2.50;;
53843;SDS011;39744;53.314;5.710;2023-04-27T07:08:09;5.32;;;2.63;;
53843;SDS011;39744;53.314;5.710;2023-04-27T07:10:34;6.65;;;3.20;;
53843;SDS011;39744;53.314;5.710;2023-04-27T07:13:00;4.88;;;2.33;;
53843;SDS011;39744;53.314;5.710;2023-04-27T07:15:26;4.97;;;3.00;;
53843;SDS011;39744;53.314;5.710;2023-04-27T07:17:51;4.55;;;2.20;;
53843;SDS011;39744;53.314;5.710;2023-04-27T07:20:20;5.72;;;2.63;;
53843;SDS011;39744;53.314;5.710;2023-04-27T07:22:46;6.00;;;2.40;;
53843;SDS011;39744;53.314;5.710;2023-04-27T07:25:11;5.35;;;2.50;;
53843;SDS011;39744;53.314;5.710;2023-04-27T07:27:37;6.30;;;2.47;;
53843;SDS011;39744;53.314;5.710;2023-04-27T07:30:03;6.13;;;2.42;;
53843;SDS011;39744;53.314;5.710;2023-04-27T07:32:32;7.40;;;2.58;;
53843;SDS011;39744;53.314;5.710;2023-04-27T07:34:58;6.15;;;2.42;;
53843;SDS011;39744;53.314;5.710;2023-04-27T07:37:24;5.20;;;1.92;;
53843;SDS011;39744;53.314;5.710;2023-04-27T07:39:50;5.90;;;2.22;;
53843;SDS011;39744;53.314;5.710;2023-04-27T07:42:17;5.00;;;2.45;;
53843;SDS011;39744;53.314;5.710;2023-04-27T07:44:43;6.35;;;2.30;;
53843;SDS011;39744;53.314;5.710;2023-04-27T07:47:09;7.15;;;2.30;;
53843;SDS011;39744;53.314;5.710;2023-04-27T07:49:35;8.75;;;2.35;;
53843;SDS011;39744;53.314;5.710;2023-04-27T07:52:01;7.50;;;2.20;;
53843;SDS011;39744;53.314;5.710;2023-04-27T07:54:28;7.85;;;2.53;;
53843;SDS011;39744;53.314;5.710;2023-04-27T07:56:53;7.72;;;2.63;;
53843;SDS011;39744;53.314;5.710;2023-04-27T07:59:19;5.63;;;2.00;;
53843;SDS011;39744;53.314;5.710;2023-04-27T08:01:46;7.18;;;2.20;;
53843;SDS011;39744;53.314;5.710;2023-04-27T08:04:12;6.85;;;2.33;;
53843;SDS011;39744;53.314;5.710;2023-04-27T08:06:39;5.10;;;2.00;;
53843;SDS011;39744;53.314;5.710;2023-04-27T08:09:05;6.03;;;2.20;;
53843;SDS011;39744;53.314;5.710;2023-04-27T08:11:32;5.28;;;1.80;;
53843;SDS011;39744;53.314;5.710;2023-04-27T08:13:58;4.30;;;2.10;;
53843;SDS011;39744;53.314;5.710;2023-04-27T08:16:24;5.53;;;2.30;;
53843;SDS011;39744;53.314;5.710;2023-04-27T08:18:50;8.20;;;2.40;;
53843;SDS011;39744;53.314;5.710;2023-04-27T08:21:16;4.80;;;2.30;;
53843;SDS011;39744;53.314;5.710;2023-04-27T08:23:42;8.55;;;2.33;;
53843;SDS011;39744;53.314;5.710;2023-04-27T08:26:12;6.13;;;2.35;;
53843;SDS011;39744;53.314;5.710;2023-04-27T08:28:38;4.38;;;2.30;;
53843;SDS011;39744;53.314;5.710;2023-04-27T08:31:04;7.38;;;2.30;;
53843;SDS011;39744;53.314;5.710;2023-04-27T08:33:30;4.60;;;2.28;;
53843;SDS011;39744;53.314;5.710;2023-04-27T08:35:56;6.50;;;2.00;;
53843;SDS011;39744;53.314;5.710;2023-04-27T08:38:22;6.00;;;2.20;;
53843;SDS011;39744;53.314;5.710;2023-04-27T08:40:48;8.13;;;2.40;;
53843;SDS011;39744;53.314;5.710;2023-04-27T08:43:14;4.32;;;2.38;;
53843;SDS011;39744;53.314;5.710;2023-04-27T08:45:46;6.88;;;2.20;;
53843;SDS011;39744;53.314;5.710;2023-04-27T08:48:13;4.50;;;2.13;;
53843;SDS011;39744;53.314;5.710;2023-04-27T08:50:39;5.53;;;2.30;;
53843;SDS011;39744;53.314;5.710;2023-04-27T08:53:17;6.07;;;2.60;;
53843;SDS011;39744;53.314;5.710;2023-04-27T08:55:44;7.07;;;2.60;;
53843;SDS011;39744;53.314;5.710;2023-04-27T08:58:10;5.95;;;2.83;;
53843;SDS011;39744;53.314;5.710;2023-04-27T09:00:37;7.55;;;2.83;;
53843;SDS011;39744;53.314;5.710;2023-04-27T09:03:05;4.30;;;2.13;;
53843;SDS011;39744;53.314;5.710;2023-04-27T09:05:31;6.65;;;2.63;;
53843;SDS011;39744;53.314;5.710;2023-04-27T09:08:02;5.38;;;2.60;;
53843;SDS011;39744;53.314;5.710;2023-04-27T09:10:29;5.22;;;2.50;;
53843;SDS011;39744;53.314;5.710;2023-04-27T09:12:58;7.22;;;2.85;;
53843;SDS011;39744;53.314;5.710;2023-04-27T09:15:25;6.90;;;2.80;;
53843;SDS011;39744;53.314;5.710;2023-04-27T09:17:52;8.60;;;2.63;;
53843;SDS011;39744;53.314;5.710;2023-04-27T09:20:18;6.15;;;2.85;;
53843;SDS011;39744;53.314;5.710;2023-04-27T09:22:45;5.50;;;2.50;;
53843;SDS011;39744;53.314;5.710;2023-04-27T09:25:24;6.30;;;2.85;;
53843;SDS011;39744;53.314;5.710;2023-04-27T09:27:50;6.03;;;3.22;;
53843;SDS011;39744;53.314;5.710;2023-04-27T09:30:17;7.10;;;2.35;;
53843;SDS011;39744;53.314;5.710;2023-04-27T09:32:53;6.18;;;2.90;;
53843;SDS011;39744;53.314;5.710;2023-04-27T09:35:21;7.93;;;2.50;;
53843;SDS011;39744;53.314;5.710;2023-04-27T09:37:48;4.47;;;2.47;;
53843;SDS011;39744;53.314;5.710;2023-04-27T09:40:17;7.50;;;2.40;;
53843;SDS011;39744;53.314;5.710;2023-04-27T09:42:43;4.57;;;2.50;;
53843;SDS011;39744;53.314;5.710;2023-04-27T09:45:10;4.90;;;2.70;;
53843;SDS011;39744;53.314;5.710;2023-04-27T09:47:36;7.50;;;3.03;;
53843;SDS011;39744;53.314;5.710;2023-04-27T09:50:03;7.55;;;3.00;;
53843;SDS011;39744;53.314;5.710;2023-04-27T09:52:30;7.20;;;2.53;;
53843;SDS011;39744;53.314;5.710;2023-04-27T09:54:57;6.57;;;2.70;;
53843;SDS011;39744;53.314;5.710;2023-04-27T09:59:57;8.57;;;3.40;;
53843;SDS011;39744;53.314;5.710;2023-04-27T10:02:26;7.70;;;2.67;;
53843;SDS011;39744;53.314;5.710;2023-04-27T10:07:20;6.38;;;2.97;;
53843;SDS011;39744;53.314;5.710;2023-04-27T10:09:47;6.72;;;3.20;;
53843;SDS011;39744;53.314;5.710;2023-04-27T10:12:17;6.32;;;2.95;;
53843;SDS011;39744;53.314;5.710;2023-04-27T10:14:53;5.30;;;2.50;;
53843;SDS011;39744;53.314;5.710;2023-04-27T10:17:38;8.77;;;2.95;;
53843;SDS011;39744;53.314;5.710;2023-04-27T10:20:05;7.65;;;2.70;;
53843;SDS011;39744;53.314;5.710;2023-04-27T10:22:36;8.35;;;3.42;;
53843;SDS011;39744;53.314;5.710;2023-04-27T10:25:11;8.68;;;2.55;;
53843;SDS011;39744;53.314;5.710;2023-04-27T10:27:38;5.13;;;2.80;;
53843;SDS011;39744;53.314;5.710;2023-04-27T10:30:09;7.93;;;2.72;;
53843;SDS011;39744;53.314;5.710;2023-04-27T10:32:35;5.95;;;2.60;;
53843;SDS011;39744;53.314;5.710;2023-04-27T10:35:02;5.68;;;2.70;;
53843;SDS011;39744;53.314;5.710;2023-04-27T10:37:38;6.32;;;3.08;;
53843;SDS011;39744;53.314;5.710;2023-04-27T10:40:09;7.35;;;3.13;;
53843;SDS011;39744;53.314;5.710;2023-04-27T10:45:04;6.38;;;3.10;;
53843;SDS011;39744;53.314;5.710;2023-04-27T10:47:38;7.78;;;2.80;;
53843;SDS011;39744;53.314;5.710;2023-04-27T10:50:05;8.50;;;2.65;;
53843;SDS011;39744;53.314;5.710;2023-04-27T10:52:32;5.22;;;2.83;;
53843;SDS011;39744;53.314;5.710;2023-04-27T10:55:03;7.95;;;2.35;;
53843;SDS011;39744;53.314;5.710;2023-04-27T10:57:29;4.45;;;2.05;;
53843;SDS011;39744;53.314;5.710;2023-04-27T10:59:55;5.95;;;2.40;;
53843;SDS011;39744;53.314;5.710;2023-04-27T11:02:25;4.72;;;2.20;;
53843;SDS011;39744;53.314;5.710;2023-04-27T11:04:51;6.78;;;2.65;;
53843;SDS011;39744;53.314;5.710;2023-04-27T11:07:24;5.70;;;2.30;;
53843;SDS011;39744;53.314;5.710;2023-04-27T11:12:16;7.03;;;2.33;;
53843;SDS011;39744;53.314;5.710;2023-04-27T11:14:43;5.18;;;2.28;;
53843;SDS011;39744;53.314;5.710;2023-04-27T11:17:09;7.72;;;2.78;;
53843;SDS011;39744;53.314;5.710;2023-04-27T11:19:46;7.10;;;3.10;;
53843;SDS011;39744;53.314;5.710;2023-04-27T11:22:13;5.72;;;2.45;;
53843;SDS011;39744;53.314;5.710;2023-04-27T11:24:45;5.18;;;2.78;;
53843;SDS011;39744;53.314;5.710;2023-04-27T11:27:12;6.18;;;2.70;;
53843;SDS011;39744;53.314;5.710;2023-04-27T11:29:38;5.03;;;2.63;;
53843;SDS011;39744;53.314;5.710;2023-04-27T11:32:04;5.88;;;2.72;;
53843;SDS011;39744;53.314;5.710;2023-04-27T11:34:30;6.90;;;2.55;;
53843;SDS011;39744;53.314;5.710;2023-04-27T11:37:03;7.25;;;3.20;;
53843;SDS011;39744;53.314;5.710;2023-04-27T11:39:33;6.95;;;2.80;;
53843;SDS011;39744;53.314;5.710;2023-04-27T11:42:22;8.50;;;3.15;;
53843;SDS011;39744;53.314;5.710;2023-04-27T11:45:09;7.13;;;3.38;;
53843;SDS011;39744;53.314;5.710;2023-04-27T11:47:35;5.22;;;2.90;;
53843;SDS011;39744;53.314;5.710;2023-04-27T11:50:03;5.07;;;2.33;;
53843;SDS011;39744;53.314;5.710;2023-04-27T11:54:56;6.10;;;2.67;;
53843;SDS011;39744;53.314;5.710;2023-04-27T11:57:26;7.60;;;2.90;;
53843;SDS011;39744;53.314;5.710;2023-04-27T11:59:53;7.85;;;3.40;;
53843;SDS011;39744;53.314;5.710;2023-04-27T12:02:19;9.57;;;2.85;;
53843;SDS011;39744;53.314;5.710;2023-04-27T12:04:48;6.30;;;2.80;;
53843;SDS011;39744;53.314;5.710;2023-04-27T12:07:15;8.55;;;3.33;;
53843;SDS011;39744;53.314;5.710;2023-04-27T12:09:41;5.82;;;3.08;;
53843;SDS011;39744;53.314;5.710;2023-04-27T12:12:08;6.70;;;3.47;;
53843;SDS011;39744;53.314;5.710;2023-04-27T12:14:34;5.78;;;3.03;;
53843;SDS011;39744;53.314;5.710;2023-04-27T12:17:00;12.07;;;4.20;;
53843;SDS011;39744;53.314;5.710;2023-04-27T12:19:26;7.95;;;3.28;;
53843;SDS011;39744;53.314;5.710;2023-04-27T12:21:54;10.25;;;2.88;;
53843;SDS011;39744;53.314;5.710;2023-04-27T12:24:20;8.85;;;3.90;;
53843;SDS011;39744;53.314;5.710;2023-04-27T12:26:47;7.70;;;3.70;;
53843;SDS011;39744;53.314;5.710;2023-04-27T12:29:13;11.80;;;4.40;;
53843;SDS011;39744;53.314;5.710;2023-04-27T12:31:39;10.95;;;3.83;;
53843;SDS011;39744;53.314;5.710;2023-04-27T12:34:05;9.20;;;3.53;;
53843;SDS011;39744;53.314;5.710;2023-04-27T12:36:31;5.90;;;3.42;;
53843;SDS011;39744;53.314;5.710;2023-04-27T12:38:58;7.18;;;3.40;;
53843;SDS011;39744;53.314;5.710;2023-04-27T12:41:24;9.25;;;3.30;;
53843;SDS011;39744;53.314;5.710;2023-04-27T12:43:50;5.55;;;3.15;;
53843;SDS011;39744;53.314;5.710;2023-04-27T12:46:17;10.88;;;3.30;;
53843;SDS011;39744;53.314;5.710;2023-04-27T12:48:43;8.32;;;3.83;;
53843;SDS011;39744;53.314;5.710;2023-04-27T12:51:10;6.80;;;3.45;;
53843;SDS011;39744;53.314;5.710;2023-04-27T12:53:37;9.02;;;3.88;;
53843;SDS011;39744;53.314;5.710;2023-04-27T12:56:03;7.93;;;3.58;;
53843;SDS011;39744;53.314;5.710;2023-04-27T12:58:29;6.78;;;3.30;;
53843;SDS011;39744;53.314;5.710;2023-04-27T13:00:55;7.93;;;3.95;;
53843;SDS011;39744;53.314;5.710;2023-04-27T13:03:22;10.38;;;4.10;;
53843;SDS011;39744;53.314;5.710;2023-04-27T13:05:48;7.75;;;3.70;;
53843;SDS011;39744;53.314;5.710;2023-04-27T13:08:15;10.38;;;3.38;;
53843;SDS011;39744;53.314;5.710;2023-04-27T13:10:41;8.05;;;4.00;;
53843;SDS011;39744;53.314;5.710;2023-04-27T13:13:07;6.53;;;3.10;;
53843;SDS011;39744;53.314;5.710;2023-04-27T13:15:33;8.52;;;3.78;;
53843;SDS011;39744;53.314;5.710;2023-04-27T13:18:01;7.30;;;3.70;;
53843;SDS011;39744;53.314;5.710;2023-04-27T13:20:29;9.23;;;4.40;;
53843;SDS011;39744;53.314;5.710;2023-04-27T13:22:55;8.88;;;3.90;;
53843;SDS011;39744;53.314;5.710;2023-04-27T13:25:22;10.93;;;3.60;;
53843;SDS011;39744;53.314;5.710;2023-04-27T13:27:48;6.15;;;3.72;;
53843;SDS011;39744;53.314;5.710;2023-04-27T13:30:15;10.25;;;4.07;;
53843;SDS011;39744;53.314;5.710;2023-04-27T13:32:41;8.20;;;3.88;;
53843;SDS011;39744;53.314;5.710;2023-04-27T13:35:07;7.35;;;3.72;;
53843;SDS011;39744;53.314;5.710;2023-04-27T13:37:33;8.60;;;3.78;;
53843;SDS011;39744;53.314;5.710;2023-04-27T13:39:59;7.60;;;3.70;;
53843;SDS011;39744;53.314;5.710;2023-04-27T13:42:25;9.68;;;4.03;;
53843;SDS011;39744;53.314;5.710;2023-04-27T13:44:53;7.28;;;3.90;;
53843;SDS011;39744;53.314;5.710;2023-04-27T13:47:20;6.90;;;3.65;;
53843;SDS011;39744;53.314;5.710;2023-04-27T13:49:46;8.65;;;3.70;;
53843;SDS011;39744;53.314;5.710;2023-04-27T13:52:12;9.30;;;4.38;;
53843;SDS011;39744;53.314;5.710;2023-04-27T13:54:39;9.77;;;4.07;;
53843;SDS011;39744;53.314;5.710;2023-04-27T13:57:05;7.38;;;3.30;;
53843;SDS011;39744;53.314;5.710;2023-04-27T13:59:31;9.80;;;4.05;;
53843;SDS011;39744;53.314;5.710;2023-04-27T14:01:57;6.70;;;3.70;;
53843;SDS011;39744;53.314;5.710;2023-04-27T14:04:23;9.90;;;3.75;;
53843;SDS011;39744;53.314;5.710;2023-04-27T14:06:49;10.68;;;3.70;;
53843;SDS011;39744;53.314;5.710;2023-04-27T14:09:15;8.27;;;3.95;;
53843;SDS011;39744;53.314;5.710;2023-04-27T14:11:41;10.02;;;3.70;;
53843;SDS011;39744;53.314;5.710;2023-04-27T14:14:07;11.20;;;4.45;;
53843;SDS011;39744;53.314;5.710;2023-04-27T14:16:33;8.57;;;4.00;;
53843;SDS011;39744;53.314;5.710;2023-04-27T14:18:59;12.45;;;4.25;;
53843;SDS011;39744;53.314;5.710;2023-04-27T14:21:25;7.35;;;3.75;;
53843;SDS011;39744;53.314;5.710;2023-04-27T14:23:52;8.82;;;4.30;;
53843;SDS011;39744;53.314;5.710;2023-04-27T14:26:18;8.32;;;3.95;;
53843;SDS011;39744;53.314;5.710;2023-04-27T14:28:44;9.35;;;3.83;;
53843;SDS011;39744;53.314;5.710;2023-04-27T14:31:10;7.72;;;4.10;;
53843;SDS011;39744;53.314;5.710;2023-04-27T14:33:36;8.23;;;3.92;;
53843;SDS011;39744;53.314;5.710;2023-04-27T14:36:02;8.07;;;3.72;;
53843;SDS011;39744;53.314;5.710;2023-04-27T14:38:28;8.18;;;4.28;;
53843;SDS011;39744;53.314;5.710;2023-04-27T14:40:54;9.90;;;3.92;;
53843;SDS011;39744;53.314;5.710;2023-04-27T14:43:20;8.85;;;4.10;;
53843;SDS011;39744;53.314;5.710;2023-04-27T14:45:46;8.65;;;4.30;;
53843;SDS011;39744;53.314;5.710;2023-04-27T14:48:12;9.82;;;3.88;;
53843;SDS011;39744;53.314;5.710;2023-04-27T14:50:38;9.63;;;4.28;;
53843;SDS011;39744;53.314;5.710;2023-04-27T14:53:04;7.35;;;3.67;;
53843;SDS011;39744;53.314;5.710;2023-04-27T14:55:30;8.10;;;3.45;;